createdAt,value
2023-05-15T00:00:07.691Z,15.40
2023-05-15T00:02:40.121Z,15.40
2023-05-15T00:05:08.027Z,15.40
2023-05-15T00:07:35.463Z,15.30
2023-05-15T00:10:02.975Z,15.30
2023-05-15T00:12:30.301Z,15.30
2023-05-15T00:14:57.301Z,15.30
2023-05-15T00:17:24.401Z,15.20
2023-05-15T00:19:51.678Z,15.20
2023-05-15T00:22:18.678Z,15.20
2023-05-15T00:24:46.397Z,15.20
2023-05-15T00:27:13.480Z,15.20
2023-05-15T00:29:40.893Z,15.10
2023-05-15T00:32:08.094Z,15.20
2023-05-15T00:34:35.257Z,15.20
2023-05-15T00:37:02.231Z,15.10
2023-05-15T00:39:35.002Z,15.10
2023-05-15T00:42:02.355Z,15.10
2023-05-15T00:44:34.344Z,15.10
2023-05-15T00:47:01.483Z,15.10
2023-05-15T00:49:29.824Z,15.10
2023-05-15T00:51:57.734Z,15.10
2023-05-15T00:54:25.131Z,15.10
2023-05-15T00:56:52.561Z,15.10
2023-05-15T00:59:19.601Z,15.10
2023-05-15T01:01:46.601Z,15.00
2023-05-15T01:04:14.586Z,15.00
2023-05-15T01:06:41.570Z,15.00
2023-05-15T01:09:08.716Z,15.00
2023-05-15T01:11:36.684Z,15.00
2023-05-15T01:14:05.687Z,14.90
2023-05-15T01:16:33.636Z,14.90
2023-05-15T01:19:05.143Z,14.90
2023-05-15T01:21:35.223Z,14.90
2023-05-15T01:24:21.226Z,14.90
2023-05-15T01:27:07.087Z,14.90
2023-05-15T01:29:38.032Z,14.90
2023-05-15T01:32:07.593Z,14.80
2023-05-15T01:34:39.687Z,14.80
2023-05-15T01:37:06.660Z,14.80
2023-05-15T01:39:34.678Z,14.70
2023-05-15T01:42:06.879Z,14.70
2023-05-15T01:44:37.445Z,14.70
2023-05-15T01:47:06.357Z,14.60
2023-05-15T01:49:35.182Z,14.60
2023-05-15T01:52:05.461Z,14.60
2023-05-15T01:54:35.586Z,14.60
2023-05-15T01:57:03.041Z,14.50
2023-05-15T01:59:30.648Z,14.40
2023-05-15T02:01:58.065Z,14.40
2023-05-15T02:04:25.871Z,14.40
2023-05-15T02:06:53.402Z,14.40
2023-05-15T02:09:21.010Z,14.30
2023-05-15T02:11:48.143Z,14.20
2023-05-15T02:14:15.342Z,14.10
2023-05-15T02:16:42.415Z,14.00
2023-05-15T02:19:10.088Z,14.00
2023-05-15T02:21:37.395Z,14.00
2023-05-15T02:24:04.469Z,13.90
2023-05-15T02:26:37.295Z,13.90
2023-05-15T02:29:07.038Z,13.90
2023-05-15T02:31:53.095Z,13.90
2023-05-15T02:34:33.831Z,13.90
2023-05-15T02:37:00.994Z,13.90
2023-05-15T02:39:28.371Z,13.90
2023-05-15T02:41:55.718Z,13.90
2023-05-15T02:44:23.323Z,13.90
2023-05-15T02:46:50.522Z,13.90
2023-05-15T02:49:18.617Z,13.90
2023-05-15T02:51:46.618Z,13.90
2023-05-15T02:54:14.096Z,13.80
2023-05-15T02:56:41.492Z,13.90
2023-05-15T02:59:10.212Z,13.80
2023-05-15T03:01:37.601Z,13.80
2023-05-15T03:04:05.148Z,13.60
2023-05-15T03:06:33.576Z,13.70
2023-05-15T03:09:00.836Z,13.60
2023-05-15T03:11:28.633Z,13.60
2023-05-15T03:13:56.062Z,13.60
2023-05-15T03:16:23.080Z,13.60
2023-05-15T03:18:50.357Z,13.60
2023-05-15T03:21:18.092Z,13.60
2023-05-15T03:23:45.360Z,13.70
2023-05-15T03:26:12.544Z,13.70
2023-05-15T03:28:41.737Z,13.60
2023-05-15T03:31:09.954Z,13.50
2023-05-15T03:33:37.991Z,13.50
2023-05-15T03:36:05.343Z,13.50
2023-05-15T03:38:32.951Z,13.40
2023-05-15T03:41:01.208Z,13.50
2023-05-15T03:43:29.849Z,13.50
2023-05-15T03:45:57.377Z,13.50
2023-05-15T03:48:24.536Z,13.50
2023-05-15T03:50:52.834Z,13.50
2023-05-15T03:53:19.817Z,13.50
2023-05-15T03:55:47.288Z,13.40
2023-05-15T03:58:14.329Z,13.30
2023-05-15T04:00:41.530Z,13.30
2023-05-15T04:03:08.888Z,13.20
2023-05-15T04:05:36.295Z,13.10
2023-05-15T04:08:04.084Z,13.00
2023-05-15T04:10:33.711Z,12.90
2023-05-15T04:13:00.784Z,12.70
2023-05-15T04:15:29.050Z,12.70
2023-05-15T04:17:56.705Z,12.60
2023-05-15T04:20:24.373Z,12.60
2023-05-15T04:22:52.157Z,12.60
2023-05-15T04:25:20.423Z,12.60
2023-05-15T04:27:47.832Z,12.60
2023-05-15T04:30:15.141Z,12.60
2023-05-15T04:32:42.585Z,12.60
2023-05-15T04:35:10.799Z,12.60
2023-05-15T04:37:41.567Z,12.60
2023-05-15T04:40:09.552Z,12.60
2023-05-15T04:42:38.611Z,12.50
2023-05-15T04:45:07.579Z,12.40
2023-05-15T04:47:34.937Z,12.30
2023-05-15T04:50:02.861Z,12.20
2023-05-15T04:52:30.278Z,12.10
2023-05-15T04:54:57.734Z,12.00
2023-05-15T04:57:26.063Z,11.90
2023-05-15T04:59:53.110Z,11.90
2023-05-15T05:04:48.684Z,11.80
2023-05-15T05:07:16.299Z,11.80
2023-05-15T05:09:43.713Z,11.70
2023-05-15T05:12:11.124Z,11.70
2023-05-15T05:14:40.566Z,11.60
2023-05-15T05:17:07.732Z,11.60
2023-05-15T05:19:34.962Z,11.50
2023-05-15T05:22:05.287Z,11.40
2023-05-15T05:24:32.860Z,11.30
2023-05-15T05:27:01.244Z,11.30
2023-05-15T05:29:28.480Z,11.10
2023-05-15T05:31:56.160Z,11.00
2023-05-15T05:34:23.187Z,11.00
2023-05-15T05:36:50.850Z,11.00
2023-05-15T05:39:17.960Z,11.00
2023-05-15T05:41:45.528Z,10.90
2023-05-15T05:44:12.797Z,10.90
2023-05-15T05:46:39.975Z,10.90
2023-05-15T05:49:07.201Z,10.90
2023-05-15T05:51:36.994Z,10.90
2023-05-15T05:54:04.522Z,11.00
2023-05-15T05:56:31.752Z,11.00
2023-05-15T05:59:02.285Z,11.00
2023-05-15T06:01:29.715Z,11.00
2023-05-15T06:03:57.919Z,11.00
2023-05-15T06:06:25.307Z,11.00
2023-05-15T06:08:54.891Z,11.00
2023-05-15T06:11:25.175Z,11.10
2023-05-15T06:13:52.949Z,11.10
2023-05-15T06:16:20.337Z,11.10
2023-05-15T06:18:47.532Z,11.10
2023-05-15T06:21:14.664Z,11.20
2023-05-15T06:23:42.737Z,11.20
2023-05-15T06:26:10.085Z,11.20
2023-05-15T06:28:37.233Z,11.40
2023-05-15T06:31:04.706Z,11.40
2023-05-15T06:33:31.836Z,11.50
2023-05-15T06:35:59.054Z,11.50
2023-05-15T06:38:27.204Z,11.50
2023-05-15T06:40:54.216Z,11.50
2023-05-15T06:43:21.249Z,11.60
2023-05-15T06:45:49.345Z,11.70
2023-05-15T06:48:16.433Z,11.80
2023-05-15T06:50:43.723Z,11.90
2023-05-15T06:53:12.353Z,11.90
2023-05-15T06:55:41.348Z,11.90
2023-05-15T06:58:08.374Z,11.90
2023-05-15T07:00:35.651Z,11.80
2023-05-15T07:03:02.999Z,11.90
2023-05-15T07:05:30.209Z,11.90
2023-05-15T07:07:57.380Z,11.90
2023-05-15T07:10:24.730Z,11.80
2023-05-15T07:12:51.944Z,11.80
2023-05-15T07:15:19.184Z,11.80
2023-05-15T07:17:46.302Z,11.70
2023-05-15T07:20:13.400Z,11.90
2023-05-15T07:22:52.064Z,12.00
2023-05-15T07:25:23.875Z,12.20
2023-05-15T07:27:51.864Z,12.30
2023-05-15T07:30:19.459Z,12.20
2023-05-15T07:32:46.652Z,12.20
2023-05-15T07:35:13.822Z,12.20
2023-05-15T07:37:41.106Z,12.10
2023-05-15T07:40:08.629Z,12.20
2023-05-15T07:42:35.953Z,12.20
2023-05-15T07:45:03.484Z,12.20
2023-05-15T07:47:30.908Z,12.20
2023-05-15T07:49:58.234Z,12.40
2023-05-15T07:52:25.295Z,12.40
2023-05-15T07:54:52.380Z,12.40
2023-05-15T07:57:20.357Z,12.40
2023-05-15T07:59:47.430Z,12.50
2023-05-15T08:02:14.667Z,12.60
2023-05-15T08:04:42.255Z,12.80
2023-05-15T08:07:09.614Z,12.90
2023-05-15T08:09:36.702Z,13.10
2023-05-15T08:12:21.289Z,13.20
2023-05-15T08:14:51.959Z,13.40
2023-05-15T08:17:19.665Z,13.60
2023-05-15T08:19:46.859Z,13.70
2023-05-15T08:22:14.286Z,13.70
2023-05-15T08:24:41.428Z,13.70
2023-05-15T08:27:08.755Z,13.70
2023-05-15T08:29:37.863Z,13.70
2023-05-15T08:32:07.226Z,13.60
2023-05-15T08:34:34.341Z,13.70
2023-05-15T08:37:01.589Z,13.80
2023-05-15T08:39:29.029Z,13.90
2023-05-15T08:41:56.264Z,14.10
2023-05-15T08:44:24.007Z,14.10
2023-05-15T08:46:51.766Z,14.00
2023-05-15T08:49:25.119Z,14.20
2023-05-15T08:51:53.092Z,14.40
2023-05-15T08:54:20.190Z,14.40
2023-05-15T08:56:50.560Z,14.40
2023-05-15T08:59:18.267Z,14.30
2023-05-15T09:01:45.531Z,14.10
2023-05-15T09:04:14.800Z,14.40
2023-05-15T09:06:42.339Z,14.60
2023-05-15T09:09:09.492Z,14.60
2023-05-15T09:11:36.668Z,14.50
2023-05-15T09:14:05.109Z,14.50
2023-05-15T09:16:34.897Z,14.60
2023-05-15T09:19:02.015Z,14.70
2023-05-15T09:21:31.447Z,14.70
2023-05-15T09:24:20.858Z,14.70
2023-05-15T09:26:48.423Z,14.60
2023-05-15T09:29:18.064Z,14.90
2023-05-15T09:31:48.968Z,14.80
2023-05-15T09:34:16.058Z,14.60
2023-05-15T09:36:44.188Z,14.80
2023-05-15T09:39:11.360Z,14.90
2023-05-15T09:41:44.581Z,14.70
2023-05-15T09:44:21.247Z,14.50
2023-05-15T09:46:49.014Z,14.60
2023-05-15T09:49:16.206Z,14.50
2023-05-15T09:51:46.999Z,14.50
2023-05-15T09:54:20.442Z,14.50
2023-05-15T09:56:47.804Z,14.60
2023-05-15T09:59:15.913Z,14.90
2023-05-15T10:01:44.991Z,14.80
2023-05-15T10:04:12.738Z,14.90
2023-05-15T10:06:42.764Z,15.20
2023-05-15T10:09:11.165Z,15.30
2023-05-15T10:11:38.805Z,15.30
2023-05-15T10:14:06.180Z,15.30
2023-05-15T10:16:37.393Z,15.40
2023-05-15T10:19:05.418Z,15.00
2023-05-15T10:21:33.515Z,14.90
2023-05-15T10:24:00.963Z,15.00
2023-05-15T10:26:29.980Z,15.10
2023-05-15T10:28:57.079Z,14.80
2023-05-15T10:31:24.112Z,14.70
2023-05-15T10:33:51.684Z,14.70
2023-05-15T10:36:19.346Z,14.80
2023-05-15T10:38:46.587Z,15.00
2023-05-15T10:41:17.168Z,15.10
2023-05-15T10:43:45.140Z,15.10
2023-05-15T10:46:13.012Z,15.20
2023-05-15T10:48:40.470Z,15.30
2023-05-15T10:51:17.742Z,15.30
2023-05-15T10:53:45.357Z,15.20
2023-05-15T10:56:13.265Z,15.20
2023-05-15T10:58:40.377Z,15.30
2023-05-15T11:01:07.884Z,15.50
2023-05-15T11:03:48.635Z,15.30
2023-05-15T11:06:17.344Z,15.00
2023-05-15T11:08:45.613Z,15.20
2023-05-15T11:11:31.453Z,15.60
2023-05-15T11:14:05.310Z,15.40
2023-05-15T11:17:09.679Z,15.50
2023-05-15T11:19:38.156Z,16.00
2023-05-15T11:22:08.296Z,16.40
2023-05-15T11:24:48.639Z,16.20
2023-05-15T11:27:22.794Z,15.90
2023-05-15T11:30:09.008Z,15.60
2023-05-15T11:32:48.687Z,15.60
2023-05-15T11:35:22.042Z,15.60
2023-05-15T11:37:50.676Z,15.60
2023-05-15T11:40:21.865Z,15.70
2023-05-15T11:43:08.023Z,15.70
2023-05-15T11:45:36.079Z,15.70
2023-05-15T11:48:04.295Z,15.60
2023-05-15T11:50:32.953Z,15.90
2023-05-15T11:53:04.850Z,16.10
2023-05-15T11:55:36.576Z,15.90
2023-05-15T11:58:06.687Z,15.70
2023-05-15T12:00:34.261Z,15.80
2023-05-15T12:03:04.162Z,16.30
2023-05-15T12:05:32.119Z,16.30
2023-05-15T12:08:00.127Z,16.30
2023-05-15T12:10:27.574Z,16.30
2023-05-15T12:12:55.111Z,16.30
2023-05-15T12:15:22.216Z,16.20
2023-05-15T12:17:51.881Z,16.20
2023-05-15T12:20:18.970Z,16.10
2023-05-15T12:22:46.237Z,16.00
2023-05-15T12:25:14.882Z,15.80
2023-05-15T12:27:42.207Z,15.40
2023-05-15T12:30:09.490Z,15.50
2023-05-15T12:32:36.857Z,16.10
2023-05-15T12:35:04.426Z,16.70
2023-05-15T12:37:33.010Z,16.40
2023-05-15T12:40:02.689Z,16.20
2023-05-15T12:42:29.867Z,16.00
2023-05-15T12:44:57.386Z,16.00
2023-05-15T12:47:25.243Z,15.90
2023-05-15T12:49:58.844Z,15.70
2023-05-15T12:52:29.775Z,15.70
2023-05-15T12:54:59.952Z,15.80
2023-05-15T12:57:28.029Z,15.80
2023-05-15T12:59:55.607Z,15.90
2023-05-15T13:02:23.377Z,15.70
2023-05-15T13:04:50.877Z,15.80
2023-05-15T13:07:18.572Z,16.10
2023-05-15T13:09:48.657Z,16.50
2023-05-15T13:12:19.209Z,17.00
2023-05-15T13:14:46.467Z,17.10
2023-05-15T13:17:14.985Z,16.80
2023-05-15T13:19:41.993Z,16.70
2023-05-15T13:22:09.239Z,16.60
2023-05-15T13:24:36.845Z,16.80
2023-05-15T13:27:04.308Z,17.00
2023-05-15T13:29:31.782Z,17.00
2023-05-15T13:31:59.301Z,17.10
2023-05-15T13:34:26.423Z,17.50
2023-05-15T13:36:53.892Z,17.50
2023-05-15T13:39:21.402Z,17.30
2023-05-15T13:41:48.538Z,16.80
2023-05-15T13:44:15.759Z,16.30
2023-05-15T13:46:43.437Z,15.90
2023-05-15T13:49:12.015Z,15.80
2023-05-15T13:51:39.208Z,16.20
2023-05-15T13:54:06.710Z,16.60
2023-05-15T13:56:40.569Z,17.20
2023-05-15T13:59:08.597Z,17.50
2023-05-15T14:01:35.592Z,17.40
2023-05-15T14:04:03.091Z,17.00
2023-05-15T14:06:33.411Z,16.90
2023-05-15T14:09:01.061Z,16.90
2023-05-15T14:11:28.469Z,16.70
2023-05-15T14:13:56.137Z,16.50
2023-05-15T14:16:23.663Z,16.30
2023-05-15T14:18:51.088Z,16.30
2023-05-15T14:21:18.563Z,16.40
2023-05-15T14:23:46.185Z,16.50
2023-05-15T14:26:13.668Z,16.60
2023-05-15T14:28:40.853Z,16.80
2023-05-15T14:31:07.866Z,17.10
2023-05-15T14:33:35.246Z,17.30
2023-05-15T14:36:05.093Z,17.20
2023-05-15T14:38:32.917Z,17.00
2023-05-15T14:41:00.440Z,16.90
2023-05-15T14:43:27.493Z,16.90
2023-05-15T14:45:55.078Z,17.00
2023-05-15T14:48:22.677Z,16.90
2023-05-15T14:50:49.833Z,16.50
2023-05-15T14:53:17.362Z,16.10
2023-05-15T14:55:44.467Z,16.10
2023-05-15T14:58:12.395Z,16.00
2023-05-15T15:00:39.795Z,16.20
2023-05-15T15:03:08.056Z,16.30
2023-05-15T15:05:35.539Z,16.30
2023-05-15T15:08:06.791Z,16.30
2023-05-15T15:10:37.844Z,16.20
2023-05-15T15:13:05.342Z,16.30
2023-05-15T15:15:32.929Z,16.30
2023-05-15T15:18:01.021Z,16.70
2023-05-15T15:20:28.660Z,17.20
2023-05-15T15:22:55.935Z,17.30
2023-05-15T15:25:23.715Z,17.50
2023-05-15T15:27:50.922Z,17.20
2023-05-15T15:30:18.209Z,16.80
2023-05-15T15:32:45.645Z,16.40
2023-05-15T15:35:14.027Z,16.20
2023-05-15T15:37:41.530Z,16.10
2023-05-15T15:40:09.099Z,16.30
2023-05-15T15:42:37.172Z,16.30
2023-05-15T15:45:05.354Z,16.20
2023-05-15T15:47:33.069Z,15.90
2023-05-15T15:50:00.643Z,15.70
2023-05-15T15:52:28.876Z,15.60
2023-05-15T15:54:57.409Z,15.40
2023-05-15T15:57:28.529Z,15.20
2023-05-15T15:59:58.592Z,15.20
2023-05-15T16:02:26.635Z,15.40
2023-05-15T16:04:53.972Z,15.40
2023-05-15T16:07:21.355Z,15.40
2023-05-15T16:09:59.865Z,15.50
2023-05-15T16:12:40.947Z,15.70
2023-05-15T16:17:40.876Z,16.20
2023-05-15T16:20:10.607Z,16.60
2023-05-15T16:22:41.859Z,17.20
2023-05-15T16:25:12.837Z,17.30
2023-05-15T16:27:40.267Z,16.80
2023-05-15T16:30:10.187Z,16.50
2023-05-15T16:32:41.158Z,16.30
2023-05-15T16:35:09.506Z,16.10
2023-05-15T16:37:37.647Z,15.90
2023-05-15T16:40:08.840Z,15.90
2023-05-15T16:42:38.009Z,15.90
2023-05-15T16:45:07.316Z,16.20
2023-05-15T16:47:35.480Z,17.00
2023-05-15T16:50:04.004Z,17.90
2023-05-15T16:52:35.482Z,17.70
2023-05-15T16:55:06.395Z,17.30
2023-05-15T16:57:36.812Z,17.50
2023-05-15T17:00:06.272Z,17.00
2023-05-15T17:02:34.135Z,16.50
2023-05-15T17:05:03.556Z,16.00
2023-05-15T17:07:32.946Z,15.80
2023-05-15T17:10:00.157Z,15.90
2023-05-15T17:12:27.623Z,16.10
2023-05-15T17:14:57.372Z,16.30
2023-05-15T17:17:26.158Z,16.40
2023-05-15T17:19:54.693Z,16.40
2023-05-15T17:22:23.047Z,16.20
2023-05-15T17:24:58.925Z,16.20
2023-05-15T17:27:31.265Z,16.40
2023-05-15T17:30:04.894Z,16.40
2023-05-15T17:32:45.740Z,16.20
2023-05-15T17:35:20.582Z,16.20
2023-05-15T17:41:57.738Z,15.80
2023-05-15T17:44:37.251Z,15.60
2023-05-15T17:47:12.472Z,15.50
2023-05-15T17:49:39.893Z,15.60
2023-05-15T17:52:07.517Z,15.50
2023-05-15T17:54:34.756Z,15.50
2023-05-15T17:57:02.990Z,15.50
2023-05-15T17:59:31.983Z,15.60
2023-05-15T18:02:00.629Z,15.50
2023-05-15T18:04:28.117Z,15.60
2023-05-15T18:06:58.373Z,15.60
2023-05-15T18:09:36.143Z,15.50
2023-05-15T18:12:04.677Z,15.50
2023-05-15T18:14:53.240Z,15.60
2023-05-15T18:17:23.134Z,15.50
2023-05-15T18:19:50.680Z,15.20
2023-05-15T18:25:15.882Z,14.90
2023-05-15T18:27:43.228Z,14.70
2023-05-15T18:32:37.212Z,14.60
2023-05-15T18:38:26.257Z,14.30
2023-05-15T18:41:45.164Z,14.30
2023-05-15T18:50:50.622Z,14.10
2023-05-15T18:53:19.841Z,14.10
2023-05-15T18:55:50.802Z,14.00
2023-05-15T18:58:18.896Z,14.00
2023-05-15T19:00:47.590Z,13.90
2023-05-15T19:03:15.929Z,13.90
2023-05-15T19:05:52.327Z,13.80
2023-05-15T19:08:20.352Z,13.70
2023-05-15T19:10:48.952Z,13.70
2023-05-15T19:13:42.366Z,13.60
2023-05-15T19:16:19.311Z,13.50
2023-05-15T19:19:09.935Z,13.50
2023-05-15T19:22:14.409Z,13.40
2023-05-15T19:25:05.268Z,13.20
2023-05-15T19:27:46.058Z,13.10
2023-05-15T19:30:31.797Z,13.10
2023-05-15T19:33:05.171Z,13.00
2023-05-15T19:35:41.613Z,12.90
2023-05-15T19:38:38.997Z,12.90
2023-05-15T19:41:08.426Z,12.80
2023-05-15T19:43:36.617Z,12.70
2023-05-15T19:46:09.968Z,12.70
2023-05-15T19:51:44.591Z,12.50
2023-05-15T19:54:23.155Z,12.40
2023-05-15T19:56:59.852Z,12.30
2023-05-15T20:00:02.780Z,12.30
2023-05-15T20:02:36.367Z,12.20
2023-05-15T20:05:17.613Z,12.10
2023-05-15T20:07:53.402Z,12.00
2023-05-15T20:10:40.836Z,12.00
2023-05-15T20:13:37.087Z,12.00
2023-05-15T20:16:41.661Z,11.90
2023-05-15T20:19:14.308Z,11.80
2023-05-15T20:21:47.357Z,11.70
2023-05-15T20:24:21.264Z,11.70
2023-05-15T20:27:14.298Z,11.60
2023-05-15T20:29:45.716Z,11.60
2023-05-15T20:32:24.512Z,11.50
2023-05-15T20:34:54.765Z,11.50
2023-05-15T20:37:42.194Z,11.40
2023-05-15T20:40:23.458Z,11.40
2023-05-15T20:43:03.552Z,11.40
2023-05-15T20:45:40.667Z,11.30
2023-05-15T20:48:52.677Z,11.30
2023-05-15T20:52:01.138Z,11.30
2023-05-15T20:55:02.927Z,11.20
2023-05-15T20:57:31.009Z,11.20
2023-05-15T21:00:29.031Z,11.10
2023-05-15T21:02:59.264Z,11.10
2023-05-15T21:05:35.925Z,11.00
2023-05-15T21:08:09.719Z,10.90
2023-05-15T21:10:37.616Z,10.90
2023-05-15T21:13:09.345Z,10.90
2023-05-15T21:15:37.556Z,10.80
2023-05-15T21:18:06.306Z,10.80
2023-05-15T21:20:37.200Z,10.80
2023-05-15T21:23:05.700Z,10.70
2023-05-15T21:25:38.665Z,10.70
2023-05-15T21:28:14.812Z,10.60
2023-05-15T21:30:44.419Z,10.60
2023-05-15T21:33:12.290Z,10.60
2023-05-15T21:35:42.718Z,10.60
2023-05-15T21:38:10.300Z,10.60
2023-05-15T21:40:41.246Z,10.60
2023-05-15T21:43:09.789Z,10.60
2023-05-15T21:45:50.959Z,10.50
2023-05-15T21:48:23.361Z,10.50
2023-05-15T21:53:56.259Z,10.40
2023-05-15T21:56:46.245Z,10.40
2023-05-15T21:59:14.708Z,10.30
2023-05-15T22:01:42.394Z,10.30
2023-05-15T22:04:13.012Z,10.30
2023-05-15T22:06:40.473Z,10.30
2023-05-15T22:09:10.925Z,10.20
2023-05-15T22:11:41.545Z,10.20
2023-05-15T22:14:10.104Z,10.20
2023-05-15T22:16:46.418Z,10.10
2023-05-15T22:19:34.776Z,10.10
2023-05-15T22:25:21.738Z,10.10
2023-05-15T22:27:49.248Z,10.00
2023-05-15T22:30:16.837Z,9.90
2023-05-15T22:32:51.434Z,9.90
2023-05-15T22:35:33.531Z,9.80
2023-05-15T22:38:10.302Z,9.70
2023-05-15T22:40:37.453Z,9.60
2023-05-15T22:43:56.143Z,9.50
2023-05-15T22:46:23.625Z,9.50
2023-05-15T22:48:53.286Z,9.30
2023-05-15T22:51:34.471Z,9.30
2023-05-15T22:54:07.692Z,9.30
2023-05-15T22:56:35.690Z,9.30
2023-05-15T22:59:15.369Z,9.30
2023-05-15T23:02:21.236Z,9.30
2023-05-15T23:04:48.658Z,9.30
2023-05-15T23:07:17.551Z,9.20
2023-05-15T23:10:09.811Z,9.10
2023-05-15T23:12:37.141Z,9.00
2023-05-15T23:15:16.097Z,9.00
2023-05-15T23:17:44.377Z,9.00
2023-05-15T23:20:29.281Z,8.90
2023-05-15T23:22:57.359Z,8.90
2023-05-15T23:25:24.855Z,8.80
2023-05-15T23:30:39.639Z,8.80
2023-05-15T23:33:06.975Z,8.80
2023-05-15T23:35:34.485Z,8.80
2023-05-15T23:38:01.969Z,8.80
2023-05-15T23:40:29.837Z,8.80
2023-05-15T23:42:56.997Z,8.90
2023-05-15T23:45:24.267Z,8.90
2023-05-15T23:47:51.723Z,9.10
2023-05-15T23:50:21.239Z,9.10
2023-05-15T23:52:48.535Z,9.20
2023-05-15T23:55:16.619Z,9.30
2023-05-15T23:57:44.322Z,9.20
